Time;durP1;ratioP1;P1;durP2;ratioP2;P2;SDS_P1;SDS_P2;PMS_P1;PMS_P2;Temp;Humidity;BMP_temperature;BMP_pressure;BME280_temperature;BME280_humidity;BME280_pressure;Samples;Min_cycle;Max_cycle;Signal;HPM_P1;HPM_P2
2022/06/02 04:10:40;;;;;;;;;;;16.60;63.30;;;;;;4771004;30;19936;-73
2022/06/02 04:15:50;;;;;;;;;;;16.60;63.50;;;;;;4772892;30;19941;-74
2022/06/02 04:18:15;;;;;;;;;;;16.60;63.70;;;;;;4773218;30;19926;-73
2022/06/02 04:20:41;;;;;;;;;;;16.60;63.70;;;;;;4758609;30;19932;-74
2022/06/02 04:23:25;;;;;;;;;;;16.60;63.70;;;;;;4757938;30;19926;-73
2022/06/02 04:25:55;;;;;;;;;;;16.70;63.80;;;;;;4757014;30;19997;-72
2022/06/02 04:28:33;;;;;;;;;;;16.70;63.70;;;;;;4773686;30;19926;-74
2022/06/02 04:31:01;;;;;;;;;;;16.70;63.50;;;;;;4767561;30;20331;-72
2022/06/02 04:33:32;;;;;;;;;;;16.70;63.40;;;;;;4773905;30;19937;-73
2022/06/02 04:36:19;;;;;;;;;;;16.70;63.30;;;;;;4757784;30;19937;-74
2022/06/02 04:38:45;;;;;;;;;;;16.70;63.10;;;;;;4773997;30;19922;-76
2022/06/02 04:41:16;;;;;;;;;;;16.70;63.10;;;;;;4773223;30;20084;-74
2022/06/02 04:43:45;;;;;;;;;;;16.70;63.10;;;;;;4733406;30;20472;-74
2022/06/02 04:46:14;;;;;;;;;;;16.70;63.70;;;;;;4743099;30;20331;-75
2022/06/02 04:48:39;;;;;;;;;;;16.70;65.30;;;;;;4757568;30;19922;-72
2022/06/02 04:51:24;;;;;;;;;;;16.70;63.60;;;;;;4773637;30;19933;-75
2022/06/02 04:53:55;;;;;;;;;;;16.90;63.20;;;;;;4773535;30;19926;-73
2022/06/02 04:56:30;;;;;;;;;;;17.00;63.00;;;;;;4757820;30;19937;-74
2022/06/02 04:59:17;;;;;;;;;;;17.10;63.00;;;;;;4773372;30;19926;-73
2022/06/02 05:01:52;;;;;;;;;;;17.20;62.90;;;;;;4757861;30;19960;-70
2022/06/02 05:04:36;;;;;;;;;;;17.30;62.90;;;;;;4758116;30;19937;-74
2022/06/02 05:07:11;;;;;;;;;;;17.40;63.10;;;;;;4757265;30;20253;-75
2022/06/02 05:09:56;;;;;;;;;;;17.30;63.10;;;;;;4791048;30;19926;-73
2022/06/02 05:12:22;;;;;;;;;;;17.50;62.90;;;;;;4780211;30;19925;-74
2022/06/02 05:14:48;;;;;;;;;;;17.50;62.40;;;;;;4742571;30;20415;-74
2022/06/02 05:17:31;;;;;;;;;;;17.60;63.20;;;;;;4773274;30;20339;-75
2022/06/02 05:20:29;;;;;;;;;;;17.60;63.20;;;;;;4773100;30;19979;-74
2022/06/02 05:23:05;;;;;;;;;;;17.60;63.20;;;;;;4746673;30;19979;-73
2022/06/02 05:25:31;;;;;;;;;;;17.70;63.00;;;;;;4773153;30;19932;-73
2022/06/02 05:28:02;;;;;;;;;;;17.80;63.10;;;;;;4757465;30;19925;-74
2022/06/02 05:30:29;;;;;;;;;;;17.80;63.30;;;;;;4757303;30;20012;-74
2022/06/02 05:33:04;;;;;;;;;;;17.90;63.30;;;;;;4772906;30;19983;-75
2022/06/02 05:35:56;;;;;;;;;;;17.90;63.10;;;;;;4772695;30;20376;-73
2022/06/02 05:38:40;;;;;;;;;;;18.00;63.30;;;;;;4751736;30;20353;-72
2022/06/02 05:41:14;;;;;;;;;;;17.90;61.30;;;;;;4772931;30;19932;-76
2022/06/02 05:43:51;;;;;;;;;;;17.80;61.80;;;;;;4772742;30;19961;-72
2022/06/02 05:46:23;;;;;;;;;;;17.70;62.20;;;;;;4774880;30;19921;-72
2022/06/02 05:48:49;;;;;;;;;;;17.70;62.70;;;;;;4790709;30;19931;-73
2022/06/02 05:51:33;;;;;;;;;;;17.60;62.90;;;;;;4790605;30;20020;-75
2022/06/02 05:54:11;;;;;;;;;;;17.60;64.10;;;;;;4758140;30;19939;-72
2022/06/02 05:56:39;;;;;;;;;;;17.80;63.90;;;;;;4742432;30;19932;-73
2022/06/02 05:59:07;;;;;;;;;;;17.90;63.90;;;;;;4756446;30;19985;-73
2022/06/02 06:01:36;;;;;;;;;;;18.00;64.10;;;;;;4756396;30;19932;-74
2022/06/02 06:04:01;;;;;;;;;;;18.10;64.50;;;;;;4771413;30;19921;-73
2022/06/02 06:06:30;;;;;;;;;;;18.10;63.70;;;;;;4771410;30;19995;-73
2022/06/02 06:09:01;;;;;;;;;;;18.10;61.80;;;;;;4771974;30;20010;-75
2022/06/02 06:11:46;;;;;;;;;;;18.00;62.40;;;;;;4771721;30;19925;-74
2022/06/02 06:14:17;;;;;;;;;;;18.00;63.00;;;;;;4772773;30;20024;-75
2022/06/02 06:16:52;;;;;;;;;;;18.00;63.10;;;;;;4755518;30;19925;-71
2022/06/02 06:19:37;;;;;;;;;;;18.00;63.50;;;;;;4770590;30;19926;-72
2022/06/02 06:22:02;;;;;;;;;;;18.10;63.90;;;;;;4772153;30;20401;-71
2022/06/02 06:24:40;;;;;;;;;;;18.10;62.90;;;;;;4772168;30;20017;-71
2022/06/02 06:27:20;;;;;;;;;;;18.10;61.20;;;;;;4772332;30;19933;-72
2022/06/02 06:30:04;;;;;;;;;;;18.20;60.70;;;;;;4772349;30;20024;-72
2022/06/02 06:32:38;;;;;;;;;;;18.10;61.00;;;;;;4756816;30;19941;-73
2022/06/02 06:35:07;;;;;;;;;;;18.00;60.30;;;;;;4772412;30;19933;-70
2022/06/02 06:37:42;;;;;;;;;;;18.00;60.10;;;;;;4789968;30;20368;-71
2022/06/02 06:40:10;;;;;;;;;;;18.10;60.10;;;;;;4793259;29;19980;-73
2022/06/02 06:42:45;;;;;;;;;;;18.10;59.50;;;;;;4793963;30;20337;-73
2022/06/02 06:45:29;;;;;;;;;;;18.00;60.20;;;;;;4794028;30;20024;-72
2022/06/02 06:48:11;;;;;;;;;;;18.00;60.40;;;;;;4793751;30;20337;-74
2022/06/02 06:50:40;;;;;;;;;;;18.00;60.60;;;;;;4778012;30;19925;-72
2022/06/02 06:53:12;;;;;;;;;;;18.00;60.80;;;;;;4793644;30;19994;-73
2022/06/02 06:55:42;;;;;;;;;;;18.00;61.20;;;;;;4772807;30;19926;-73
2022/06/02 06:58:11;;;;;;;;;;;18.00;61.30;;;;;;4775841;30;20280;-72
2022/06/02 07:00:49;;;;;;;;;;;18.00;61.40;;;;;;4760208;30;20334;-74
2022/06/02 07:03:21;;;;;;;;;;;18.10;61.60;;;;;;4775726;30;19926;-73
2022/06/02 07:05:46;;;;;;;;;;;18.10;61.60;;;;;;4760634;30;19952;-71
2022/06/02 07:08:12;;;;;;;;;;;18.10;62.20;;;;;;4760541;30;19926;-74
2022/06/02 07:10:38;;;;;;;;;;;18.10;61.70;;;;;;4759162;30;19925;-72
2022/06/02 07:13:12;;;;;;;;;;;18.10;61.50;;;;;;4775677;30;19975;-74
2022/06/02 07:15:41;;;;;;;;;;;18.10;61.70;;;;;;4775359;30;19932;-73
2022/06/02 07:18:10;;;;;;;;;;;18.10;61.60;;;;;;4775142;30;19925;-73
2022/06/02 07:20:36;;;;;;;;;;;18.10;61.60;;;;;;4775042;30;19926;-72
2022/06/02 07:23:20;;;;;;;;;;;18.10;61.70;;;;;;4774930;30;19936;-74
2022/06/02 07:26:05;;;;;;;;;;;18.00;61.70;;;;;;4759774;30;20042;-73
2022/06/02 07:28:30;;;;;;;;;;;18.10;61.90;;;;;;4759724;30;19930;-73
2022/06/02 07:31:09;;;;;;;;;;;18.00;61.80;;;;;;4759696;30;20369;-73
2022/06/02 07:33:51;;;;;;;;;;;18.10;61.90;;;;;;4759853;30;20012;-71
2022/06/02 07:36:46;;;;;;;;;;;18.10;61.90;;;;;;4792736;30;20345;-71
2022/06/02 07:39:29;;;;;;;;;;;18.10;61.60;;;;;;4761611;30;19976;-73
2022/06/02 07:42:15;;;;;;;;;;;18.10;61.00;;;;;;4764944;30;20020;-75
2022/06/02 07:44:41;;;;;;;;;;;18.00;61.10;;;;;;4743868;30;19922;-74
2022/06/02 07:47:10;;;;;;;;;;;18.00;61.30;;;;;;4774740;30;19933;-74
2022/06/02 07:49:44;;;;;;;;;;;18.00;61.40;;;;;;4775038;30;20012;-76
2022/06/02 07:52:25;;;;;;;;;;;18.00;61.50;;;;;;4773704;30;19976;-75
2022/06/02 07:54:57;;;;;;;;;;;18.00;61.70;;;;;;4774806;30;20379;-72
2022/06/02 07:57:29;;;;;;;;;;;18.00;61.70;;;;;;4758852;30;19922;-75
2022/06/02 08:00:03;;;;;;;;;;;18.00;61.70;;;;;;4773983;30;20283;-73
2022/06/02 08:02:32;;;;;;;;;;;18.10;61.90;;;;;;4774070;30;19922;-75
2022/06/02 08:05:09;;;;;;;;;;;18.10;62.00;;;;;;4774281;30;19922;-76
2022/06/02 08:07:54;;;;;;;;;;;18.10;62.10;;;;;;4774394;30;19925;-73
2022/06/02 08:10:25;;;;;;;;;;;18.10;62.30;;;;;;4772322;30;19933;-74
2022/06/02 08:13:07;;;;;;;;;;;18.10;62.30;;;;;;4773742;30;19926;-74
2022/06/02 08:15:37;;;;;;;;;;;18.10;62.40;;;;;;4752942;30;19926;-74
2022/06/02 08:18:22;;;;;;;;;;;18.20;62.40;;;;;;4774237;30;19955;-73
2022/06/02 08:20:47;;;;;;;;;;;18.20;62.60;;;;;;4776341;30;20357;-74
2022/06/02 08:23:25;;;;;;;;;;;18.20;62.50;;;;;;4776246;30;20002;-74
2022/06/02 08:25:57;;;;;;;;;;;18.20;62.60;;;;;;4792300;30;19987;-73
2022/06/02 08:28:40;;;;;;;;;;;18.20;62.60;;;;;;4776134;30;20399;-73
2022/06/02 08:31:26;;;;;;;;;;;18.20;62.60;;;;;;4792058;30;20321;-73
2022/06/02 08:34:07;;;;;;;;;;;18.20;62.70;;;;;;4778304;30;19926;-73
2022/06/02 08:36:35;;;;;;;;;;;18.20;62.70;;;;;;4791852;30;19925;-73
2022/06/02 08:39:12;;;;;;;;;;;18.20;62.80;;;;;;4788935;30;20324;-73
2022/06/02 08:41:47;;;;;;;;;;;18.20;62.80;;;;;;4758235;30;19926;-73
2022/06/02 08:44:31;;;;;;;;;;;18.20;62.80;;;;;;4773053;30;19993;-74
2022/06/02 08:47:03;;;;;;;;;;;18.20;62.80;;;;;;4756678;30;20008;-76
2022/06/02 08:49:48;;;;;;;;;;;18.20;62.90;;;;;;4771968;30;20427;-74
2022/06/02 08:52:13;;;;;;;;;;;18.20;62.80;;;;;;4773216;30;20080;-74
2022/06/02 08:54:58;;;;;;;;;;;18.20;62.90;;;;;;4775053;30;20358;-74
2022/06/02 08:57:47;;;;;;;;;;;18.20;62.90;;;;;;4790853;30;19925;-73
2022/06/02 09:00:22;;;;;;;;;;;18.30;63.00;;;;;;4783228;30;20037;-75
2022/06/02 09:02:54;;;;;;;;;;;18.30;63.10;;;;;;4774898;30;19929;-73
2022/06/02 09:05:38;;;;;;;;;;;18.30;63.20;;;;;;4783095;29;20312;-73
2022/06/02 09:08:27;;;;;;;;;;;18.30;63.20;;;;;;4772795;30;19964;-74
2022/06/02 09:11:02;;;;;;;;;;;18.30;63.10;;;;;;4762564;30;19932;-75
2022/06/02 09:13:39;;;;;;;;;;;18.20;63.10;;;;;;4756879;30;20320;-72
2022/06/02 09:16:11;;;;;;;;;;;18.30;63.20;;;;;;4772680;30;20020;-76
2022/06/02 09:18:52;;;;;;;;;;;18.30;63.20;;;;;;4772658;30;19925;-73
2022/06/02 09:21:22;;;;;;;;;;;18.30;63.10;;;;;;4771265;30;19961;-74
2022/06/02 09:23:55;;;;;;;;;;;18.30;63.20;;;;;;4772262;30;19926;-73
2022/06/02 09:26:29;;;;;;;;;;;18.30;63.30;;;;;;4756757;30;19961;-74
2022/06/02 09:29:02;;;;;;;;;;;18.30;63.40;;;;;;4772555;30;20011;-75
2022/06/02 09:31:28;;;;;;;;;;;18.30;63.30;;;;;;4772468;30;19933;-74
2022/06/02 09:33:57;;;;;;;;;;;18.30;63.30;;;;;;4771362;30;19926;-71
2022/06/02 09:36:28;;;;;;;;;;;18.30;63.30;;;;;;4771387;30;19991;-70
2022/06/02 09:39:12;;;;;;;;;;;18.30;63.20;;;;;;4763502;30;20020;-72
2022/06/02 09:41:46;;;;;;;;;;;18.30;63.10;;;;;;4771710;30;19934;-70
2022/06/02 09:44:11;;;;;;;;;;;18.30;62.90;;;;;;4772037;30;19926;-76
2022/06/02 09:46:40;;;;;;;;;;;18.30;63.00;;;;;;4756715;30;19926;-75
2022/06/02 09:49:27;;;;;;;;;;;18.30;63.00;;;;;;4756712;30;20226;-74
2022/06/02 09:51:58;;;;;;;;;;;18.30;63.10;;;;;;4772227;30;19982;-73
2022/06/02 09:54:49;;;;;;;;;;;18.30;63.20;;;;;;4771269;30;20312;-75
2022/06/02 10:00:23;;;;;;;;;;;18.30;63.20;;;;;;4771810;30;19930;-75
2022/06/02 10:02:52;;;;;;;;;;;18.30;63.20;;;;;;4770858;30;20281;-76
2022/06/02 10:05:43;;;;;;;;;;;18.40;63.20;;;;;;4771461;30;20518;-75
2022/06/02 10:08:09;;;;;;;;;;;18.40;63.20;;;;;;4771767;30;20338;-78
2022/06/02 10:10:39;;;;;;;;;;;18.40;63.40;;;;;;4771658;30;19926;-76
2022/06/02 10:13:26;;;;;;;;;;;18.40;63.40;;;;;;4780852;30;20363;-74
2022/06/02 10:16:10;;;;;;;;;;;18.40;63.60;;;;;;4774089;30;20020;-73
2022/06/02 10:18:38;;;;;;;;;;;18.40;63.90;;;;;;4789679;30;19925;-71
2022/06/02 10:21:08;;;;;;;;;;;18.40;64.50;;;;;;4771493;30;19937;-73
2022/06/02 10:23:39;;;;;;;;;;;18.40;63.80;;;;;;4771070;30;20243;-70
2022/06/02 10:26:05;;;;;;;;;;;18.40;64.00;;;;;;4770410;30;19961;-71
2022/06/02 10:28:51;;;;;;;;;;;18.40;64.10;;;;;;4770963;30;19987;-72
2022/06/02 10:31:35;;;;;;;;;;;18.40;63.80;;;;;;4768993;30;20384;-72
2022/06/02 10:34:01;;;;;;;;;;;18.50;63.90;;;;;;4755821;30;20414;-71
2022/06/02 10:36:37;;;;;;;;;;;18.50;63.90;;;;;;4751333;30;19934;-70
2022/06/02 10:39:16;;;;;;;;;;;18.50;63.90;;;;;;4755751;30;19937;-71
2022/06/02 10:41:53;;;;;;;;;;;18.50;63.90;;;;;;4771693;30;19929;-73
2022/06/02 10:44:38;;;;;;;;;;;18.50;64.00;;;;;;4771281;30;19929;-72
2022/06/02 10:47:19;;;;;;;;;;;18.50;64.00;;;;;;4754218;30;19930;-73
2022/06/02 10:50:03;;;;;;;;;;;18.50;64.30;;;;;;4770460;30;19973;-73
2022/06/02 10:52:48;;;;;;;;;;;18.50;64.40;;;;;;4755691;30;19925;-73
2022/06/02 10:55:32;;;;;;;;;;;18.60;65.20;;;;;;4770183;30;19995;-70
2022/06/02 10:58:00;;;;;;;;;;;18.60;65.10;;;;;;4740814;30;19926;-71
2022/06/02 11:00:30;;;;;;;;;;;18.60;65.30;;;;;;4755943;30;19944;-72
2022/06/02 11:03:08;;;;;;;;;;;18.60;64.90;;;;;;4771373;30;19926;-73
2022/06/02 11:05:52;;;;;;;;;;;18.60;65.10;;;;;;4755613;30;19963;-72
2022/06/02 11:08:37;;;;;;;;;;;18.60;65.30;;;;;;4766660;30;19926;-73
2022/06/02 11:11:21;;;;;;;;;;;18.60;65.40;;;;;;4770199;30;20345;-73
2022/06/02 11:14:09;;;;;;;;;;;18.60;65.40;;;;;;4769936;30;19925;-75
2022/06/02 11:16:53;;;;;;;;;;;18.60;65.40;;;;;;4753196;30;19930;-71
2022/06/02 11:19:19;;;;;;;;;;;18.60;65.20;;;;;;4757475;30;19926;-71
2022/06/02 11:22:00;;;;;;;;;;;18.60;65.50;;;;;;4763086;30;19937;-74
2022/06/02 11:24:25;;;;;;;;;;;18.60;65.40;;;;;;4789260;30;19933;-75
2022/06/02 11:27:09;;;;;;;;;;;18.60;65.70;;;;;;4774778;29;19994;-74
2022/06/02 11:30:00;;;;;;;;;;;18.60;65.30;;;;;;4756806;30;20014;-77
2022/06/02 11:32:49;;;;;;;;;;;18.60;65.70;;;;;;4774721;30;19990;-76
2022/06/02 11:35:18;;;;;;;;;;;18.60;65.80;;;;;;4774541;30;19925;-75
2022/06/02 11:38:02;;;;;;;;;;;18.70;65.90;;;;;;4774399;30;19925;-76
2022/06/02 11:40:27;;;;;;;;;;;18.60;66.50;;;;;;4759022;30;20278;-73
2022/06/02 11:42:56;;;;;;;;;;;18.70;66.00;;;;;;4774807;30;19925;-77
2022/06/02 11:45:21;;;;;;;;;;;18.70;67.40;;;;;;4777114;30;20565;-73
2022/06/02 11:48:06;;;;;;;;;;;18.70;67.20;;;;;;4777078;29;19926;-75
2022/06/02 11:50:57;;;;;;;;;;;18.70;68.30;;;;;;4755901;30;19926;-73
2022/06/02 11:53:32;;;;;;;;;;;18.70;67.60;;;;;;4759598;30;19941;-75
2022/06/02 11:56:09;;;;;;;;;;;18.70;67.70;;;;;;4759036;30;19934;-77
2022/06/02 11:58:37;;;;;;;;;;;18.80;67.50;;;;;;4758321;30;20037;-74
2022/06/02 12:01:12;;;;;;;;;;;18.70;68.20;;;;;;4740879;30;19956;-76
2022/06/02 12:03:52;;;;;;;;;;;18.70;68.20;;;;;;4770917;30;19925;-72
2022/06/02 12:06:17;;;;;;;;;;;18.80;68.10;;;;;;4789536;30;19935;-74
2022/06/02 12:09:10;;;;;;;;;;;18.70;68.00;;;;;;4777439;29;20013;-74
2022/06/02 12:11:55;;;;;;;;;;;18.70;68.00;;;;;;4773252;30;19937;-74
2022/06/02 12:14:34;;;;;;;;;;;18.70;67.90;;;;;;4773807;30;19934;-74
2022/06/02 12:17:02;;;;;;;;;;;18.70;68.20;;;;;;4773804;30;20006;-73
2022/06/02 12:19:31;;;;;;;;;;;18.70;68.00;;;;;;4774202;30;19936;-73
2022/06/02 12:22:32;;;;;;;;;;;18.70;68.00;;;;;;4773863;30;19926;-74
2022/06/02 12:25:05;;;;;;;;;;;18.70;67.90;;;;;;4666295;30;19928;-74
2022/06/02 12:27:30;;;;;;;;;;;18.80;67.90;;;;;;4758798;30;20412;-74
2022/06/02 12:30:06;;;;;;;;;;;18.70;67.80;;;;;;4781989;30;20016;-75
2022/06/02 12:32:50;;;;;;;;;;;18.70;67.70;;;;;;4758707;30;19936;-73
2022/06/02 12:35:19;;;;;;;;;;;18.70;67.70;;;;;;4757427;30;20496;-74
2022/06/02 12:38:03;;;;;;;;;;;18.70;67.60;;;;;;4765073;30;19938;-74
2022/06/02 12:40:47;;;;;;;;;;;18.70;67.50;;;;;;4753142;30;19979;-74
2022/06/02 12:43:13;;;;;;;;;;;18.60;67.40;;;;;;4772493;30;19995;-72
2022/06/02 12:45:49;;;;;;;;;;;18.60;68.00;;;;;;4760465;30;19926;-74
2022/06/02 12:48:34;;;;;;;;;;;18.60;67.30;;;;;;4767309;30;19925;-75
2022/06/02 12:51:08;;;;;;;;;;;18.70;67.40;;;;;;4773148;30;20313;-74
2022/06/02 12:53:43;;;;;;;;;;;18.70;67.40;;;;;;4773477;30;19936;-75
2022/06/02 12:56:09;;;;;;;;;;;18.70;67.30;;;;;;4755943;30;19994;-74
2022/06/02 12:58:54;;;;;;;;;;;18.70;67.20;;;;;;4772946;30;19986;-71
2022/06/02 13:01:27;;;;;;;;;;;18.70;67.30;;;;;;4775609;30;19972;-71
2022/06/02 13:04:07;;;;;;;;;;;18.70;67.20;;;;;;4773612;30;20340;-72
2022/06/02 13:06:52;;;;;;;;;;;18.70;67.30;;;;;;4773632;30;19925;-73
2022/06/02 13:09:30;;;;;;;;;;;18.70;67.30;;;;;;4773216;30;19981;-73
2022/06/02 13:12:01;;;;;;;;;;;18.70;67.20;;;;;;4757332;30;20271;-72
2022/06/02 13:14:45;;;;;;;;;;;18.70;67.30;;;;;;4773296;30;19973;-76
2022/06/02 13:17:14;;;;;;;;;;;18.70;67.50;;;;;;4755511;30;20489;-75
2022/06/02 13:19:41;;;;;;;;;;;18.70;67.60;;;;;;4769951;30;19925;-75
2022/06/02 13:22:27;;;;;;;;;;;18.70;67.80;;;;;;4771758;30;19922;-74
2022/06/02 13:25:11;;;;;;;;;;;18.70;68.00;;;;;;4772557;30;19932;-72
2022/06/02 13:27:42;;;;;;;;;;;18.70;68.70;;;;;;4773071;30;19921;-77
2022/06/02 13:30:20;;;;;;;;;;;18.70;68.60;;;;;;4772742;30;20215;-75
2022/06/02 13:33:07;;;;;;;;;;;18.80;69.50;;;;;;4756598;30;19929;-77
2022/06/02 13:35:45;;;;;;;;;;;18.80;69.40;;;;;;4761307;30;19936;-73
2022/06/02 13:38:14;;;;;;;;;;;18.90;70.20;;;;;;4772190;30;19983;-72
2022/06/02 13:40:52;;;;;;;;;;;18.90;69.60;;;;;;4772291;30;19940;-72
2022/06/02 13:43:21;;;;;;;;;;;18.90;69.00;;;;;;4771700;30;19936;-72
2022/06/02 13:46:11;;;;;;;;;;;18.90;68.80;;;;;;4769393;30;20310;-74
2022/06/02 13:48:48;;;;;;;;;;;18.90;69.20;;;;;;4782749;30;19925;-71
2022/06/02 13:51:35;;;;;;;;;;;18.90;68.60;;;;;;4772324;30;19991;-69
2022/06/02 13:57:32;;;;;;;;;;;19.00;68.30;;;;;;4763038;30;20016;-71
2022/06/02 14:00:11;;;;;;;;;;;19.00;68.80;;;;;;4772117;30;19937;-74
2022/06/02 14:02:56;;;;;;;;;;;19.00;69.20;;;;;;4772480;30;20079;-72
2022/06/02 14:05:21;;;;;;;;;;;19.00;69.60;;;;;;4771704;30;20412;-75
2022/06/02 14:07:50;;;;;;;;;;;19.10;70.80;;;;;;4760313;30;20000;-75
2022/06/02 14:10:24;;;;;;;;;;;19.10;70.50;;;;;;4771519;30;19929;-75
2022/06/02 14:13:03;;;;;;;;;;;19.10;69.70;;;;;;4771934;30;19929;-75
2022/06/02 14:15:38;;;;;;;;;;;19.10;71.20;;;;;;4771952;30;19976;-74
2022/06/02 14:18:03;;;;;;;;;;;19.10;72.80;;;;;;4771875;30;19936;-73
2022/06/02 14:20:52;;;;;;;;;;;19.10;69.70;;;;;;4771763;30;19930;-73
2022/06/02 14:23:20;;;;;;;;;;;19.20;69.30;;;;;;4765271;30;19933;-73
2022/06/02 14:25:49;;;;;;;;;;;19.20;68.10;;;;;;4756385;30;19925;-72
2022/06/02 14:28:18;;;;;;;;;;;19.20;66.80;;;;;;4763193;30;19926;-73
2022/06/02 14:30:48;;;;;;;;;;;19.20;66.60;;;;;;4756398;30;20012;-73
2022/06/02 14:33:23;;;;;;;;;;;19.10;67.60;;;;;;4742347;30;20239;-73
2022/06/02 14:36:07;;;;;;;;;;;19.10;67.90;;;;;;4771902;30;19926;-74
2022/06/02 14:38:35;;;;;;;;;;;19.10;68.60;;;;;;4772420;30;20334;-73
2022/06/02 14:41:17;;;;;;;;;;;19.10;68.80;;;;;;4756671;30;19949;-70
2022/06/02 14:43:51;;;;;;;;;;;19.10;68.10;;;;;;4771425;30;20330;-73
2022/06/02 14:46:25;;;;;;;;;;;19.20;68.60;;;;;;4782512;30;20020;-73
2022/06/02 14:49:17;;;;;;;;;;;19.20;68.90;;;;;;4763288;30;19925;-73
2022/06/02 14:51:55;;;;;;;;;;;19.20;69.00;;;;;;4766047;30;19926;-72
2022/06/02 14:54:24;;;;;;;;;;;19.20;69.10;;;;;;4771752;30;20350;-73
2022/06/02 14:57:05;;;;;;;;;;;19.20;69.70;;;;;;4771079;30;19929;-72
2022/06/02 14:59:48;;;;;;;;;;;19.20;68.80;;;;;;4756441;30;19940;-75
2022/06/02 15:02:26;;;;;;;;;;;19.20;68.60;;;;;;4759655;30;19937;-72
2022/06/02 15:05:05;;;;;;;;;;;19.20;68.30;;;;;;4760005;30;19926;-73
2022/06/02 15:07:51;;;;;;;;;;;19.20;68.00;;;;;;4759995;30;19925;-73
2022/06/02 15:10:28;;;;;;;;;;;19.20;67.70;;;;;;4759176;30;19926;-73
2022/06/02 15:13:13;;;;;;;;;;;19.20;67.30;;;;;;4774936;30;19992;-73
2022/06/02 15:15:45;;;;;;;;;;;19.20;66.80;;;;;;4763070;30;20373;-73
2022/06/02 15:18:29;;;;;;;;;;;19.20;66.80;;;;;;4770271;30;20365;-73
2022/06/02 15:21:12;;;;;;;;;;;19.20;66.60;;;;;;4774890;30;20028;-74
2022/06/02 15:23:57;;;;;;;;;;;19.20;66.90;;;;;;4758851;30;19932;-73
2022/06/02 15:26:41;;;;;;;;;;;19.20;67.10;;;;;;4759414;30;19936;-71
2022/06/02 15:29:07;;;;;;;;;;;19.20;67.30;;;;;;4775048;30;19926;-73
2022/06/02 15:31:48;;;;;;;;;;;19.20;67.40;;;;;;4759243;30;19925;-72
2022/06/02 15:34:42;;;;;;;;;;;19.20;67.60;;;;;;4774749;30;19926;-72
2022/06/02 15:37:26;;;;;;;;;;;19.10;67.60;;;;;;4775332;30;20219;-72
2022/06/02 15:40:10;;;;;;;;;;;19.10;67.60;;;;;;4774574;30;19981;-72
2022/06/02 15:42:50;;;;;;;;;;;19.10;67.70;;;;;;4774656;30;20012;-72
2022/06/02 15:45:22;;;;;;;;;;;19.10;67.70;;;;;;4774161;30;19936;-73
2022/06/02 15:47:50;;;;;;;;;;;19.10;67.70;;;;;;4772831;30;19965;-72
2022/06/02 15:50:31;;;;;;;;;;;19.10;67.80;;;;;;4759235;30;19995;-72
2022/06/02 15:53:04;;;;;;;;;;;19.20;67.70;;;;;;4774551;30;20009;-74
2022/06/02 15:55:29;;;;;;;;;;;19.10;67.80;;;;;;4774132;30;19945;-74
2022/06/02 15:58:14;;;;;;;;;;;19.20;67.70;;;;;;4773943;30;19929;-71
2022/06/02 16:00:45;;;;;;;;;;;19.20;67.60;;;;;;4774646;30;20000;-72
2022/06/02 16:03:29;;;;;;;;;;;19.20;67.60;;;;;;4758729;30;19926;-74
2022/06/02 16:06:01;;;;;;;;;;;19.20;67.60;;;;;;4774414;30;19938;-73
2022/06/02 16:08:38;;;;;;;;;;;19.20;67.50;;;;;;4774040;30;19977;-74
2022/06/02 16:11:16;;;;;;;;;;;19.20;67.80;;;;;;4776174;29;19925;-72
2022/06/02 16:14:00;;;;;;;;;;;19.30;67.70;;;;;;4776113;30;19948;-73
2022/06/02 16:16:26;;;;;;;;;;;19.30;67.50;;;;;;4764375;30;20013;-74
2022/06/02 16:19:10;;;;;;;;;;;19.30;67.70;;;;;;4774178;30;20020;-74
2022/06/02 16:21:55;;;;;;;;;;;19.30;67.70;;;;;;4756469;30;19926;-74
2022/06/02 16:24:20;;;;;;;;;;;19.30;67.60;;;;;;4759717;30;20235;-72
2022/06/02 16:26:46;;;;;;;;;;;19.30;67.40;;;;;;4773747;30;19987;-74
2022/06/02 16:29:30;;;;;;;;;;;19.40;67.30;;;;;;4773148;30;20338;-72
2022/06/02 16:32:08;;;;;;;;;;;19.30;66.90;;;;;;4773233;30;19925;-73
2022/06/02 16:34:53;;;;;;;;;;;19.30;66.30;;;;;;4754996;30;20395;-74
2022/06/02 16:37:19;;;;;;;;;;;19.30;66.10;;;;;;4741213;30;19926;-74
2022/06/02 16:39:51;;;;;;;;;;;19.30;65.60;;;;;;4749290;30;19925;-72
2022/06/02 16:42:20;;;;;;;;;;;19.30;65.50;;;;;;4756951;30;19933;-73
2022/06/02 16:45:04;;;;;;;;;;;19.30;65.10;;;;;;4772773;30;20262;-73
2022/06/02 16:47:48;;;;;;;;;;;19.40;65.30;;;;;;4773445;30;19929;-74
2022/06/02 16:50:32;;;;;;;;;;;19.40;65.20;;;;;;4770783;30;19982;-74
2022/06/02 16:56:11;;;;;;;;;;;19.40;64.80;;;;;;4779293;30;19934;-73
2022/06/02 16:58:51;;;;;;;;;;;19.40;63.90;;;;;;4772808;30;19937;-73
2022/06/02 18:39:06;;;;;;;;;;;19.40;65.50;;;;;;4836295;24;19929;-70
2022/06/02 18:41:38;;;;;;;;;;;19.40;65.30;;;;;;4795939;29;19925;-71
2022/06/02 18:44:15;;;;;;;;;;;19.40;65.10;;;;;;4796196;29;19924;-71
2022/06/02 18:46:41;;;;;;;;;;;19.40;64.70;;;;;;4810160;29;19925;-72
2022/06/02 18:49:14;;;;;;;;;;;19.40;64.20;;;;;;4811759;29;19931;-72
2022/06/02 18:51:58;;;;;;;;;;;19.40;63.60;;;;;;4811585;29;19925;-71
2022/06/02 18:54:32;;;;;;;;;;;19.40;63.10;;;;;;4811299;29;20256;-74
2022/06/02 18:57:06;;;;;;;;;;;19.40;63.30;;;;;;4811210;29;19936;-72
2022/06/02 18:59:45;;;;;;;;;;;19.40;62.40;;;;;;4812333;29;20333;-72
2022/06/02 19:02:11;;;;;;;;;;;19.40;62.30;;;;;;4811476;29;20396;-71
2022/06/02 19:04:48;;;;;;;;;;;19.30;61.00;;;;;;4811249;29;19964;-73
2022/06/02 19:24:24;;;;;;;;;;;19.20;62.30;;;;;;4793132;30;19945;-73
2022/06/02 19:26:53;;;;;;;;;;;19.10;62.20;;;;;;4792801;30;19925;-76
2022/06/02 19:29:25;;;;;;;;;;;19.10;62.10;;;;;;4793035;30;19936;-75
2022/06/02 19:31:53;;;;;;;;;;;19.10;62.00;;;;;;4792706;30;20226;-73
2022/06/02 19:34:25;;;;;;;;;;;19.10;62.00;;;;;;4792796;30;19989;-73
2022/06/02 19:36:59;;;;;;;;;;;19.10;61.90;;;;;;4792495;30;20287;-73
2022/06/02 19:39:25;;;;;;;;;;;19.20;61.90;;;;;;4777016;30;20376;-72
2022/06/02 19:42:03;;;;;;;;;;;19.10;61.80;;;;;;4792214;30;20020;-73
2022/06/02 19:44:34;;;;;;;;;;;19.10;61.90;;;;;;4792558;30;19933;-72
2022/06/02 19:47:01;;;;;;;;;;;19.10;62.10;;;;;;4790934;29;20340;-73
2022/06/02 19:49:46;;;;;;;;;;;19.10;62.10;;;;;;4777152;30;20365;-72
2022/06/02 19:52:30;;;;;;;;;;;19.10;62.00;;;;;;4785638;30;19929;-73
2022/06/02 19:55:04;;;;;;;;;;;19.10;62.00;;;;;;4776790;30;19925;-74
2022/06/02 19:57:33;;;;;;;;;;;19.10;61.90;;;;;;4792516;30;19926;-73
2022/06/02 20:00:05;;;;;;;;;;;19.20;61.90;;;;;;4793183;30;19926;-73
2022/06/02 20:02:31;;;;;;;;;;;19.20;61.90;;;;;;4776551;30;20268;-72
2022/06/02 20:05:00;;;;;;;;;;;19.20;61.90;;;;;;4792506;30;20372;-73
2022/06/02 20:07:26;;;;;;;;;;;19.10;61.80;;;;;;4792147;30;19983;-73
2022/06/02 20:10:01;;;;;;;;;;;19.10;61.80;;;;;;4792265;30;19937;-73
2022/06/02 20:12:41;;;;;;;;;;;19.10;61.70;;;;;;4775977;30;19925;-73
2022/06/02 20:15:14;;;;;;;;;;;19.10;61.70;;;;;;4791995;30;20341;-74
2022/06/02 20:17:43;;;;;;;;;;;19.10;61.80;;;;;;4792349;30;19945;-73
2022/06/02 20:20:34;;;;;;;;;;;19.10;61.80;;;;;;4792148;30;19971;-73
2022/06/02 20:23:02;;;;;;;;;;;19.10;61.80;;;;;;4767868;29;19971;-72
2022/06/02 20:25:31;;;;;;;;;;;19.20;61.80;;;;;;4810397;29;19990;-72
2022/06/02 20:28:07;;;;;;;;;;;19.10;61.80;;;;;;4809358;29;20273;-74
2022/06/02 20:30:41;;;;;;;;;;;19.20;61.80;;;;;;4810131;29;19925;-73
2022/06/02 20:33:12;;;;;;;;;;;19.10;61.80;;;;;;4810375;29;19980;-74
2022/06/02 20:35:50;;;;;;;;;;;19.10;61.80;;;;;;4793283;29;19925;-73
2022/06/02 20:38:22;;;;;;;;;;;19.10;61.70;;;;;;4809175;29;19947;-74
2022/06/02 20:41:06;;;;;;;;;;;19.10;61.90;;;;;;4809615;29;19925;-73
2022/06/02 20:43:51;;;;;;;;;;;19.10;61.90;;;;;;4809750;29;20016;-73
2022/06/02 20:46:29;;;;;;;;;;;19.10;61.90;;;;;;4809580;29;19933;-73
2022/06/02 20:49:05;;;;;;;;;;;19.10;62.10;;;;;;4792940;29;19925;-75
2022/06/02 20:51:51;;;;;;;;;;;19.00;62.00;;;;;;4809992;29;20325;-72
2022/06/02 20:54:35;;;;;;;;;;;19.00;62.00;;;;;;4809659;29;19925;-73
2022/06/02 20:57:18;;;;;;;;;;;19.00;62.00;;;;;;4809764;29;19935;-72
2022/06/02 20:59:48;;;;;;;;;;;19.00;62.00;;;;;;4809071;29;19925;-74
2022/06/02 21:02:25;;;;;;;;;;;19.00;62.10;;;;;;4809432;29;19936;-74
2022/06/02 21:04:58;;;;;;;;;;;19.00;62.20;;;;;;4809436;29;20015;-75
2022/06/02 21:07:27;;;;;;;;;;;18.90;61.90;;;;;;4809637;29;19939;-74
2022/06/02 21:10:09;;;;;;;;;;;18.80;61.00;;;;;;4809815;29;20249;-72
2022/06/02 21:12:51;;;;;;;;;;;18.60;60.90;;;;;;4808766;29;20305;-75
2022/06/02 21:15:38;;;;;;;;;;;18.50;60.70;;;;;;4809031;29;20352;-76
2022/06/02 21:18:26;;;;;;;;;;;18.40;60.60;;;;;;4792941;29;20023;-71
2022/06/02 21:20:54;;;;;;;;;;;18.20;60.60;;;;;;4792725;29;20364;-73
